createdAt,value
2018-10-21T00:00:45.537Z,16.63
2018-10-21T00:03:13.648Z,14.57
2018-10-21T00:05:41.661Z,18.93
2018-10-21T00:08:09.738Z,14.50
2018-10-21T00:10:38.095Z,15.73
2018-10-21T00:13:06.161Z,16.87
2018-10-21T00:15:34.381Z,19.30
2018-10-21T00:18:02.313Z,18.23
2018-10-21T00:20:30.456Z,17.13
2018-10-21T00:22:58.522Z,18.30
2018-10-21T00:25:26.609Z,19.67
2018-10-21T00:27:54.698Z,17.37
2018-10-21T00:30:22.763Z,17.83
2018-10-21T00:32:51.961Z,18.83
2018-10-21T00:35:20.052Z,20.37
2018-10-21T00:37:48.138Z,13.20
2018-10-21T00:40:16.265Z,14.50
2018-10-21T00:42:44.325Z,16.87
2018-10-21T00:45:12.501Z,13.67
2018-10-21T00:47:40.469Z,18.33
2018-10-21T00:50:09.638Z,17.90
2018-10-21T00:52:37.695Z,12.87
2018-10-21T00:55:06.371Z,22.50
2018-10-21T00:57:34.430Z,17.33
2018-10-21T01:00:02.542Z,16.50
2018-10-21T01:02:30.594Z,16.37
2018-10-21T01:04:59.858Z,16.93
2018-10-21T01:07:27.907Z,17.43
2018-10-21T01:09:56.010Z,12.67
2018-10-21T01:12:24.055Z,14.47
2018-10-21T01:14:52.115Z,18.73
2018-10-21T01:17:20.155Z,17.87
2018-10-21T01:19:48.222Z,15.33
2018-10-21T01:22:16.312Z,17.77
2018-10-21T01:24:44.429Z,16.53
2018-10-21T01:27:12.526Z,18.77
2018-10-21T01:29:44.954Z,16.97
2018-10-21T01:32:13.446Z,19.63
2018-10-21T01:34:41.510Z,16.37
2018-10-21T01:37:09.622Z,19.53
2018-10-21T01:40:50.012Z,19.60
2018-10-21T01:43:20.723Z,21.63
2018-10-21T01:45:48.823Z,23.43
2018-10-21T01:48:18.203Z,22.37
2018-10-21T01:50:46.393Z,30.73
2018-10-21T01:53:15.675Z,26.17
2018-10-21T01:55:43.766Z,35.33
2018-10-21T01:58:11.853Z,31.37
2018-10-21T02:00:40.530Z,41.33
2018-10-21T02:03:08.675Z,36.57
2018-10-21T02:05:37.187Z,37.63
2018-10-21T02:08:05.463Z,38.53
2018-10-21T02:10:33.627Z,37.77
2018-10-21T02:13:01.831Z,28.73
2018-10-21T02:15:29.930Z,23.33
2018-10-21T02:17:58.050Z,20.30
2018-10-21T02:20:26.412Z,21.77
2018-10-21T02:22:54.487Z,24.17
2018-10-21T02:25:22.573Z,35.27
2018-10-21T02:27:52.262Z,37.27
2018-10-21T02:30:22.495Z,38.20
2018-10-21T02:32:51.233Z,40.77
2018-10-21T02:35:19.880Z,39.50
2018-10-21T02:37:48.349Z,38.20
2018-10-21T02:42:23.191Z,30.97
2018-10-21T02:44:51.271Z,20.53
2018-10-21T02:47:19.351Z,33.97
2018-10-21T02:49:47.439Z,4.60
2018-10-21T02:52:15.589Z,69.93
2018-10-21T02:54:44.387Z,24.47
2018-10-21T02:57:13.590Z,14.53
2018-10-21T02:59:41.713Z,17.60
2018-10-21T03:02:09.841Z,18.77
2018-10-21T03:04:38.567Z,25.53
2018-10-21T03:07:06.685Z,41.73
2018-10-21T03:09:34.795Z,44.73
2018-10-21T03:12:02.904Z,51.37
2018-10-21T03:14:31.002Z,25.33
2018-10-21T03:16:59.138Z,21.20
2018-10-21T03:19:27.253Z,22.70
2018-10-21T03:21:55.378Z,23.10
2018-10-21T06:46:57.516Z,19.03
2018-10-21T06:49:25.740Z,13.47
2018-10-21T06:51:53.897Z,13.97
2018-10-21T06:54:22.026Z,12.97
2018-10-21T06:56:50.263Z,13.90
2018-10-21T06:59:18.289Z,18.83
2018-10-21T07:01:47.291Z,12.73
2018-10-21T07:04:16.545Z,10.90
2018-10-21T07:06:44.621Z,26.57
2018-10-21T07:09:12.783Z,14.83
2018-10-21T07:11:40.865Z,16.23
2018-10-21T07:14:08.953Z,11.63
2018-10-21T07:16:37.138Z,13.63
2018-10-21T07:19:05.290Z,31.67
2018-10-21T07:21:33.476Z,76.10
2018-10-21T07:24:01.698Z,59.60
2018-10-21T07:26:29.849Z,69.90
2018-10-21T07:28:58.008Z,43.17
2018-10-21T07:31:26.126Z,35.03
2018-10-21T07:33:54.298Z,37.43
2018-10-21T07:36:22.468Z,20.30
2018-10-21T07:38:50.524Z,22.70
2018-10-21T07:41:18.671Z,20.30
2018-10-21T07:43:46.811Z,21.10
2018-10-21T07:46:15.033Z,14.77
2018-10-21T07:48:43.073Z,11.43
2018-10-21T07:51:11.179Z,35.90
2018-10-21T07:53:41.297Z,15.83
2018-10-21T07:56:09.414Z,53.17
2018-10-21T07:58:37.548Z,8.13
2018-10-21T08:01:05.806Z,8.43
2018-10-21T08:03:34.001Z,14.17
2018-10-21T08:06:24.761Z,8.40
2018-10-21T08:08:52.915Z,13.80
2018-10-21T08:11:21.035Z,16.20
2018-10-21T08:13:49.160Z,11.77
2018-10-21T08:16:17.306Z,18.43
2018-10-21T08:18:45.429Z,25.03
2018-10-21T08:21:13.593Z,22.30
2018-10-21T08:23:41.689Z,19.27
2018-10-21T08:26:09.804Z,9.63
2018-10-21T08:28:37.892Z,8.57
2018-10-21T08:31:06.019Z,7.23
2018-10-21T08:33:34.138Z,22.93
2018-10-21T08:36:02.263Z,10.70
2018-10-21T08:38:30.379Z,9.83
2018-10-21T08:40:58.493Z,10.23
2018-10-21T08:43:26.596Z,10.73
2018-10-21T08:45:54.690Z,10.43
2018-10-21T08:48:23.013Z,13.43
2018-10-21T08:50:51.125Z,10.90
2018-10-21T08:53:19.244Z,10.70
2018-10-21T08:55:47.357Z,12.43
2018-10-21T08:58:15.525Z,12.47
2018-10-21T09:00:43.563Z,11.97
2018-10-21T09:03:11.622Z,9.08
2018-10-21T09:05:39.759Z,9.33
2018-10-21T09:08:07.841Z,13.45
2018-10-21T09:10:35.995Z,10.48
2018-10-21T09:13:04.123Z,12.60
2018-10-21T09:15:32.269Z,14.07
2018-10-21T09:18:00.296Z,11.15
2018-10-21T09:20:28.396Z,10.35
2018-10-21T09:22:56.511Z,14.28
2018-10-21T09:25:24.627Z,10.95
2018-10-21T09:27:52.714Z,14.87
2018-10-21T09:30:20.793Z,14.10
2018-10-21T09:32:48.992Z,12.30
2018-10-21T09:35:18.120Z,12.45
2018-10-21T09:37:46.576Z,13.40
2018-10-21T09:40:16.002Z,14.28
2018-10-21T09:42:44.377Z,14.47
2018-10-21T09:45:13.908Z,14.45
2018-10-21T09:47:42.261Z,14.98
2018-10-21T09:50:10.491Z,16.90
2018-10-21T09:52:38.610Z,17.32
2018-10-21T09:55:11.555Z,12.85
2018-10-21T09:57:39.738Z,12.47
2018-10-21T10:00:07.844Z,14.30
2018-10-21T10:02:41.282Z,14.98
2018-10-21T10:05:09.461Z,11.45
2018-10-21T10:07:37.531Z,13.32
2018-10-21T10:10:07.490Z,13.48
2018-10-21T10:12:35.589Z,15.03
2018-10-21T10:15:04.674Z,14.47
2018-10-21T10:17:32.904Z,15.50
2018-10-21T10:20:01.043Z,14.07
2018-10-21T10:22:29.152Z,15.75
2018-10-21T10:24:58.172Z,11.03
2018-10-21T10:27:26.235Z,12.35
2018-10-21T10:29:54.322Z,12.20
2018-10-21T10:35:15.840Z,10.53
2018-10-21T10:37:43.965Z,13.90
2018-10-21T10:40:13.046Z,12.17
2018-10-21T10:42:41.229Z,11.15
2018-10-21T10:45:09.338Z,15.55
2018-10-21T10:47:37.933Z,11.15
2018-10-21T10:50:07.205Z,12.88
2018-10-21T10:52:35.318Z,12.90
2018-10-21T10:55:03.491Z,10.13
2018-10-21T10:57:31.611Z,11.28
2018-10-21T10:59:59.817Z,11.05
2018-10-21T11:02:27.878Z,8.80
2018-10-21T11:04:57.004Z,10.78
2018-10-21T11:07:25.086Z,11.48
2018-10-21T11:09:53.200Z,8.98
2018-10-21T11:12:21.473Z,10.88
2018-10-21T11:14:49.641Z,9.00
2018-10-21T11:17:17.748Z,9.95
2018-10-21T11:19:45.829Z,10.85
2018-10-21T11:22:13.938Z,11.03
2018-10-21T11:24:46.902Z,10.48
2018-10-21T11:27:15.609Z,8.90
2018-10-21T11:29:43.796Z,8.68
2018-10-21T11:32:11.885Z,7.92
2018-10-21T11:34:40.051Z,6.85
2018-10-21T11:37:08.590Z,10.15
2018-10-21T11:39:36.671Z,9.38
2018-10-21T11:42:05.170Z,10.43
2018-10-21T11:44:33.257Z,8.75
2018-10-21T11:47:01.406Z,6.15
2018-10-21T11:49:29.529Z,5.30
2018-10-21T11:51:57.640Z,8.88
2018-10-21T11:54:25.713Z,7.97
2018-10-21T11:56:53.810Z,8.28
2018-10-21T11:59:21.946Z,8.03
2018-10-21T12:01:50.085Z,5.90
2018-10-21T12:04:18.214Z,9.23
2018-10-21T12:06:46.593Z,6.75
2018-10-21T12:09:14.728Z,8.58
2018-10-21T12:11:42.833Z,8.50
2018-10-21T12:14:11.252Z,6.92
2018-10-21T12:16:39.458Z,6.30
2018-10-21T12:19:08.615Z,9.95
2018-10-21T12:21:36.805Z,8.53
2018-10-21T12:24:05.210Z,5.37
2018-10-21T12:26:33.371Z,4.05
2018-10-21T12:29:01.553Z,7.42
2018-10-21T12:31:29.706Z,4.83
2018-10-21T12:33:57.851Z,5.78
2018-10-21T12:36:25.918Z,8.78
2018-10-21T12:38:54.085Z,6.25
2018-10-21T12:41:22.222Z,9.55
2018-10-21T12:43:50.354Z,7.12
2018-10-21T12:46:18.447Z,5.10
2018-10-21T12:48:46.603Z,7.60
2018-10-21T12:51:14.679Z,5.87
2018-10-21T12:53:42.769Z,7.90
2018-10-21T12:56:10.862Z,6.33
2018-10-21T12:58:40.320Z,7.22
2018-10-21T13:01:08.823Z,4.22
2018-10-21T13:03:36.937Z,7.12
2018-10-21T13:06:05.106Z,6.05
2018-10-21T13:08:33.210Z,6.35
2018-10-21T13:11:01.300Z,6.95
2018-10-21T13:13:29.462Z,5.45
2018-10-21T13:15:57.499Z,6.75
2018-10-21T13:18:25.606Z,3.92
2018-10-21T13:20:53.734Z,5.40
2018-10-21T13:23:21.840Z,3.80
2018-10-21T13:25:49.961Z,5.58
2018-10-21T13:28:18.095Z,7.10
2018-10-21T13:30:46.195Z,5.20
2018-10-21T13:33:14.327Z,6.72
2018-10-21T13:35:42.425Z,5.42
2018-10-21T13:38:10.689Z,7.20
2018-10-21T13:40:38.909Z,5.53
2018-10-21T13:43:07.215Z,6.25
2018-10-21T13:45:35.255Z,5.92
2018-10-21T13:48:03.407Z,6.80
2018-10-21T13:50:31.490Z,4.47
2018-10-21T13:52:59.638Z,5.37
2018-10-21T13:55:27.707Z,7.53
2018-10-21T13:57:55.793Z,5.60
2018-10-21T14:00:23.927Z,6.33
2018-10-21T14:02:52.053Z,6.35
2018-10-21T14:05:20.170Z,9.40
2018-10-21T14:07:48.268Z,5.70
2018-10-21T14:10:16.464Z,5.17
2018-10-21T14:12:44.504Z,6.60
2018-10-21T14:15:12.705Z,9.00
2018-10-21T14:17:40.806Z,6.53
2018-10-21T14:20:10.014Z,6.08
2018-10-21T14:22:38.233Z,4.10
2018-10-21T14:25:06.560Z,6.22
2018-10-21T14:27:34.609Z,5.72
2018-10-21T14:30:02.934Z,4.17
2018-10-21T14:32:31.036Z,6.03
2018-10-21T14:34:59.161Z,4.33
2018-10-21T14:37:27.272Z,7.67
2018-10-21T14:39:55.410Z,10.73
2018-10-21T14:42:23.452Z,6.73
2018-10-21T14:44:51.562Z,4.33
2018-10-21T14:47:19.654Z,4.23
2018-10-21T14:49:47.812Z,8.00
2018-10-21T14:52:15.875Z,10.40
2018-10-21T14:54:44.000Z,7.00
